Pannal, United Kingdom
Current Conditions -  °F | °C
As of 5:50 PM on Sunday 21 Dec 2014 (Local Time) from EGNM Reporting Station
Light Rain Light Rain  
Wind Chill: 50°   Ceiling: Unl
Heat Index: 50°   Visibility: 6mi
Dew Point: 48°   Wind: 16mph
Humidity: 94%   Direction: 230°SW
Pressure: 29.88"   Gusts: NA
Location:  53.96°N, 1.54°W
Report Text: EGNM 211750Z 23014KT 190V270 9999 -RA SCT013 SCT019 10/09 Q1012
Loading
Personal Weather Stations






























Interactive Weather Map New forecast layout! Learn more

10-Day Weather Forecast

Advertisements
Track Severe Weather on mobile